Time;durP1;ratioP1;P1;durP2;ratioP2;P2;SDS_P1;SDS_P2;PMS_P1;PMS_P2;Temp;Humidity;BMP_temperature;BMP_pressure;BME280_temperature;BME280_humidity;BME280_pressure;Samples;Min_cycle;Max_cycle;Signal;HPM_P1;HPM_P2
2022/01/03 00:02:17;;;;;;;78.53;38.40;;;;;;;;;;5022274;28;20033;-77
2022/01/03 00:04:43;;;;;;;68.95;35.20;;;;;;;;;;5028142;28;20037;-76
2022/01/03 00:07:11;;;;;;;71.32;37.00;;;;;;;;;;5023367;28;20037;-77
2022/01/03 00:09:38;;;;;;;60.00;34.00;;;;;;;;;;5033993;28;20116;-76
2022/01/03 00:12:04;;;;;;;61.55;34.10;;;;;;;;;;5033302;28;20041;-77
2022/01/03 00:14:31;;;;;;;55.28;30.17;;;;;;;;;;5032618;28;20076;-77
2022/01/03 00:16:57;;;;;;;58.78;33.30;;;;;;;;;;5033357;28;20068;-76
2022/01/03 00:19:23;;;;;;;56.92;30.00;;;;;;;;;;5032418;28;20032;-77
2022/01/03 00:21:51;;;;;;;30.35;16.98;;;;;;;;;;5032909;28;20049;-77
2022/01/03 00:24:20;;;;;;;29.23;15.40;;;;;;;;;;5031005;28;20128;-77
2022/01/03 00:26:49;;;;;;;30.73;15.88;;;;;;;;;;5031354;28;20082;-77
2022/01/03 00:29:17;;;;;;;30.67;16.48;;;;;;;;;;5032613;28;20511;-77
2022/01/03 00:31:43;;;;;;;41.42;21.23;;;;;;;;;;5031327;28;20488;-77
2022/01/03 00:34:11;;;;;;;57.70;29.60;;;;;;;;;;5024388;28;20156;-76
2022/01/03 00:36:37;;;;;;;65.45;31.88;;;;;;;;;;5024093;28;20044;-77
2022/01/03 00:39:05;;;;;;;48.22;25.27;;;;;;;;;;5012920;28;20033;-76
2022/01/03 00:41:31;;;;;;;46.83;22.73;;;;;;;;;;5024185;28;20040;-77
2022/01/03 00:43:57;;;;;;;43.45;23.10;;;;;;;;;;5032573;28;20369;-76
2022/01/03 00:46:23;;;;;;;43.25;21.45;;;;;;;;;;5031704;28;20484;-77
2022/01/03 00:48:49;;;;;;;33.63;18.08;;;;;;;;;;5032233;28;20029;-75
2022/01/03 00:51:19;;;;;;;36.38;19.90;;;;;;;;;;5034398;28;20040;-77
2022/01/03 00:53:46;;;;;;;29.75;17.50;;;;;;;;;;5035349;28;20107;-77
2022/01/03 00:56:12;;;;;;;25.10;14.75;;;;;;;;;;5031886;28;20156;-76
2022/01/03 00:58:48;;;;;;;28.75;16.33;;;;;;;;;;5032191;28;20669;-77
2022/01/03 01:01:15;;;;;;;25.33;15.30;;;;;;;;;;5027893;28;20112;-77
2022/01/03 01:03:42;;;;;;;27.67;15.93;;;;;;;;;;5025106;28;20841;-77
2022/01/03 01:06:08;;;;;;;37.03;19.92;;;;;;;;;;5031182;28;20152;-77
2022/01/03 01:08:35;;;;;;;40.95;26.00;;;;;;;;;;5032070;28;20472;-76
2022/01/03 01:11:03;;;;;;;37.03;21.70;;;;;;;;;;5031408;28;20037;-77
2022/01/03 01:13:29;;;;;;;35.10;21.45;;;;;;;;;;5031711;28;20037;-77
2022/01/03 01:15:55;;;;;;;33.10;19.98;;;;;;;;;;5031299;28;20041;-76
2022/01/03 01:18:23;;;;;;;32.85;19.45;;;;;;;;;;5013636;28;20053;-77
2022/01/03 01:20:49;;;;;;;28.67;17.35;;;;;;;;;;5011895;28;20084;-76
2022/01/03 01:23:15;;;;;;;27.15;14.43;;;;;;;;;;5013441;28;20563;-76
2022/01/03 01:28:09;;;;;;;24.30;13.82;;;;;;;;;;5031405;28;20042;-75
2022/01/03 01:30:35;;;;;;;20.90;12.05;;;;;;;;;;5031366;28;20037;-76
2022/01/03 01:33:02;;;;;;;28.98;15.48;;;;;;;;;;5023620;28;20583;-77
2022/01/03 01:35:50;;;;;;;34.78;17.30;;;;;;;;;;5030652;28;20033;-77
2022/01/03 01:38:24;;;;;;;32.92;16.77;;;;;;;;;;5031019;28;20496;-77
2022/01/03 01:40:51;;;;;;;27.85;15.55;;;;;;;;;;5031345;28;20380;-76
2022/01/03 01:43:44;;;;;;;29.65;16.45;;;;;;;;;;5045120;23;20504;-77
2022/01/03 01:46:13;;;;;;;27.55;16.45;;;;;;;;;;5027751;28;20096;-76
2022/01/03 01:48:40;;;;;;;26.90;14.30;;;;;;;;;;5030807;28;20634;-77
2022/01/03 01:51:07;;;;;;;29.80;14.57;;;;;;;;;;5031127;28;20037;-76
2022/01/03 01:53:39;;;;;;;26.88;15.18;;;;;;;;;;5030583;28;20033;-76
2022/01/03 01:56:08;;;;;;;27.27;14.32;;;;;;;;;;5030958;28;20045;-77
2022/01/03 01:58:37;;;;;;;25.42;13.60;;;;;;;;;;5030050;28;20057;-76
2022/01/03 02:01:05;;;;;;;25.70;14.52;;;;;;;;;;5030418;28;20052;-76
2022/01/03 02:04:09;;;;;;;24.42;14.27;;;;;;;;;;5030355;28;20167;-76
2022/01/03 02:06:45;;;;;;;27.85;15.70;;;;;;;;;;4950316;29;20051;-76
2022/01/03 02:09:19;;;;;;;25.40;14.57;;;;;;;;;;4959001;28;20130;-76
2022/01/03 02:11:45;;;;;;;20.75;12.05;;;;;;;;;;5005695;28;20151;-77
2022/01/03 02:14:11;;;;;;;24.83;13.35;;;;;;;;;;5030162;28;20136;-76
2022/01/03 02:16:38;;;;;;;22.83;12.07;;;;;;;;;;5030512;28;20037;-77
2022/01/03 02:19:04;;;;;;;21.23;13.60;;;;;;;;;;5030515;28;20025;-76
2022/01/03 02:21:30;;;;;;;23.20;12.57;;;;;;;;;;5030215;28;20080;-76
2022/01/03 02:23:56;;;;;;;22.98;13.07;;;;;;;;;;5030610;28;20455;-76
2022/01/03 02:26:22;;;;;;;25.00;12.65;;;;;;;;;;5030055;28;20511;-77
2022/01/03 02:28:48;;;;;;;24.48;13.90;;;;;;;;;;5010889;28;20034;-76
2022/01/03 02:31:17;;;;;;;20.15;12.02;;;;;;;;;;5024188;28;20078;-76
2022/01/03 02:33:43;;;;;;;26.50;13.48;;;;;;;;;;5030535;28;20026;-77
2022/01/03 02:36:10;;;;;;;21.10;12.18;;;;;;;;;;5030051;28;20079;-77
2022/01/03 02:38:36;;;;;;;20.20;12.25;;;;;;;;;;5030621;28;20025;-77
2022/01/03 02:41:02;;;;;;;21.23;12.43;;;;;;;;;;5024977;28;20100;-77
2022/01/03 02:43:29;;;;;;;21.90;12.80;;;;;;;;;;5010627;28;20081;-76
2022/01/03 02:45:55;;;;;;;21.40;12.10;;;;;;;;;;5023781;28;20507;-76
2022/01/03 02:48:22;;;;;;;24.13;13.88;;;;;;;;;;5040934;28;20105;-77
2022/01/03 02:50:48;;;;;;;20.38;12.10;;;;;;;;;;5029821;28;20021;-77
2022/01/03 02:53:14;;;;;;;23.48;13.05;;;;;;;;;;5030447;28;20120;-76
2022/01/03 02:55:41;;;;;;;21.90;13.40;;;;;;;;;;5033154;28;20068;-77
2022/01/03 02:58:07;;;;;;;22.92;13.13;;;;;;;;;;5037550;28;20041;-76
2022/01/03 03:00:35;;;;;;;24.95;13.10;;;;;;;;;;5034484;28;20017;-77
2022/01/03 03:03:03;;;;;;;19.98;11.90;;;;;;;;;;5034319;28;20468;-76
2022/01/03 03:05:29;;;;;;;22.73;13.27;;;;;;;;;;5033175;28;20025;-77
2022/01/03 03:07:55;;;;;;;21.63;12.90;;;;;;;;;;5031886;28;20107;-77
2022/01/03 03:10:23;;;;;;;22.50;12.35;;;;;;;;;;5034220;28;20112;-77
2022/01/03 03:12:49;;;;;;;23.83;12.02;;;;;;;;;;5034128;28;20025;-77
2022/01/03 03:15:16;;;;;;;19.35;11.90;;;;;;;;;;5033804;28;20034;-77
2022/01/03 03:17:43;;;;;;;18.55;10.25;;;;;;;;;;5033710;28;20151;-76
2022/01/03 03:20:10;;;;;;;16.88;10.63;;;;;;;;;;5020116;28;20026;-76
2022/01/03 03:22:37;;;;;;;17.30;9.40;;;;;;;;;;5025968;28;20076;-76
2022/01/03 03:25:09;;;;;;;17.58;9.90;;;;;;;;;;5052365;28;20043;-76
2022/01/03 03:27:37;;;;;;;20.17;10.63;;;;;;;;;;5046423;28;20048;-76
2022/01/03 03:30:04;;;;;;;22.17;9.82;;;;;;;;;;5033783;28;20029;-77
2022/01/03 03:32:31;;;;;;;18.73;10.20;;;;;;;;;;5033607;28;20037;-76
2022/01/03 03:34:57;;;;;;;24.00;12.00;;;;;;;;;;5035450;28;20034;-76
2022/01/03 03:37:23;;;;;;;19.25;10.55;;;;;;;;;;5033541;28;20048;-77
2022/01/03 03:39:49;;;;;;;21.30;10.95;;;;;;;;;;5033237;28;20060;-76
2022/01/03 03:42:15;;;;;;;19.77;11.25;;;;;;;;;;5033600;28;20493;-77
2022/01/03 03:44:42;;;;;;;19.98;11.75;;;;;;;;;;5029306;28;20037;-76
2022/01/03 03:47:08;;;;;;;20.33;12.80;;;;;;;;;;5033874;28;20048;-77
2022/01/03 03:49:34;;;;;;;19.40;11.13;;;;;;;;;;5033119;28;20115;-77
2022/01/03 03:52:02;;;;;;;17.55;10.52;;;;;;;;;;5033885;28;20045;-76
2022/01/03 03:54:31;;;;;;;18.08;10.90;;;;;;;;;;5037235;28;20060;-77
2022/01/03 03:56:57;;;;;;;18.08;9.52;;;;;;;;;;5053578;28;20033;-77
2022/01/03 03:59:24;;;;;;;16.45;9.63;;;;;;;;;;5040132;28;20067;-76
2022/01/03 04:01:50;;;;;;;20.48;9.75;;;;;;;;;;5033624;28;20052;-77
2022/01/03 04:04:16;;;;;;;18.15;8.80;;;;;;;;;;5032684;28;20018;-76
2022/01/03 04:06:42;;;;;;;15.90;9.93;;;;;;;;;;5013643;28;20044;-76
2022/01/03 04:09:08;;;;;;;20.30;9.38;;;;;;;;;;5013357;28;20487;-76
2022/01/03 04:11:34;;;;;;;18.70;10.48;;;;;;;;;;5030621;28;20042;-77
2022/01/03 04:14:00;;;;;;;18.00;10.27;;;;;;;;;;5033545;28;20029;-77
2022/01/03 04:16:26;;;;;;;16.38;9.52;;;;;;;;;;5032260;28;20068;-76
2022/01/03 04:18:52;;;;;;;23.77;9.65;;;;;;;;;;5031988;28;20507;-77
2022/01/03 04:21:18;;;;;;;16.90;8.88;;;;;;;;;;5024559;28;20188;-76
2022/01/03 04:23:44;;;;;;;20.55;10.15;;;;;;;;;;5032917;28;20503;-76
2022/01/03 04:26:11;;;;;;;18.75;9.68;;;;;;;;;;5034219;28;20116;-76
2022/01/03 04:28:38;;;;;;;19.30;10.90;;;;;;;;;;5034440;28;20064;-77
2022/01/03 04:31:04;;;;;;;16.85;9.75;;;;;;;;;;5031904;28;20056;-76
2022/01/03 04:33:30;;;;;;;16.20;10.32;;;;;;;;;;5028637;28;20029;-76
2022/01/03 04:35:56;;;;;;;17.70;10.00;;;;;;;;;;5031641;28;20067;-77
2022/01/03 04:38:22;;;;;;;20.85;11.30;;;;;;;;;;5032740;28;20055;-77
2022/01/03 04:40:48;;;;;;;19.15;9.75;;;;;;;;;;5033553;28;20034;-76
2022/01/03 04:43:14;;;;;;;17.33;10.02;;;;;;;;;;5036760;28;20512;-77
2022/01/03 04:45:40;;;;;;;17.98;10.32;;;;;;;;;;5032333;28;20092;-77
2022/01/03 04:48:06;;;;;;;17.92;11.13;;;;;;;;;;5036011;28;20053;-77
2022/01/03 04:50:32;;;;;;;15.77;9.85;;;;;;;;;;5032525;28;20661;-77
2022/01/03 04:52:58;;;;;;;18.30;9.75;;;;;;;;;;5032198;28;20037;-76
2022/01/03 04:55:24;;;;;;;18.85;11.05;;;;;;;;;;5032226;28;20038;-77
2022/01/03 04:57:50;;;;;;;18.00;10.40;;;;;;;;;;5032229;28;20037;-77
2022/01/03 05:00:17;;;;;;;20.70;10.52;;;;;;;;;;5029252;28;20041;-77
2022/01/03 05:02:43;;;;;;;19.67;9.90;;;;;;;;;;5032396;28;20048;-76
2022/01/03 05:05:10;;;;;;;21.77;11.43;;;;;;;;;;5031446;28;20108;-76
2022/01/03 05:07:36;;;;;;;19.83;10.88;;;;;;;;;;5032139;28;20045;-77
2022/01/03 05:10:03;;;;;;;20.63;10.65;;;;;;;;;;5041656;28;20434;-76
2022/01/03 05:12:29;;;;;;;19.88;11.02;;;;;;;;;;5041574;28;20061;-77
2022/01/03 05:14:55;;;;;;;22.67;11.00;;;;;;;;;;5031717;28;20060;-77
2022/01/03 05:17:21;;;;;;;18.90;10.95;;;;;;;;;;5031292;28;20524;-77
2022/01/03 05:19:47;;;;;;;23.77;11.50;;;;;;;;;;5031638;28;20116;-76
2022/01/03 05:22:13;;;;;;;19.83;10.20;;;;;;;;;;5031826;28;20108;-76
2022/01/03 05:24:39;;;;;;;23.02;13.40;;;;;;;;;;5031381;28;20392;-77
2022/01/03 05:27:05;;;;;;;29.83;19.00;;;;;;;;;;5031725;28;20083;-77
2022/01/03 05:29:32;;;;;;;27.33;16.15;;;;;;;;;;5044129;28;20036;-77
2022/01/03 05:31:58;;;;;;;25.05;15.02;;;;;;;;;;5037788;28;20036;-76
2022/01/03 05:34:24;;;;;;;21.15;12.32;;;;;;;;;;5030905;28;20507;-77
2022/01/03 05:36:50;;;;;;;19.17;10.60;;;;;;;;;;5031735;28;20116;-76
2022/01/03 05:39:16;;;;;;;19.13;10.50;;;;;;;;;;5031056;28;20468;-77
2022/01/03 05:41:42;;;;;;;19.58;10.75;;;;;;;;;;5031366;28;20132;-76
2022/01/03 05:44:08;;;;;;;27.95;11.02;;;;;;;;;;5030664;28;20044;-77
2022/01/03 05:46:34;;;;;;;20.55;10.55;;;;;;;;;;5031392;28;20045;-77
2022/01/03 05:49:01;;;;;;;19.48;11.68;;;;;;;;;;5033534;28;20029;-77
2022/01/03 05:51:27;;;;;;;19.58;11.48;;;;;;;;;;5048757;28;20045;-77
2022/01/03 05:53:53;;;;;;;18.10;10.60;;;;;;;;;;5030577;28;20368;-77
2022/01/03 05:56:20;;;;;;;18.33;10.63;;;;;;;;;;5030839;28;20041;-77
2022/01/03 05:58:46;;;;;;;18.48;11.23;;;;;;;;;;5031243;28;20026;-76
2022/01/03 06:01:12;;;;;;;25.98;11.68;;;;;;;;;;5026666;28;20037;-76
2022/01/03 06:03:40;;;;;;;26.73;12.93;;;;;;;;;;5013211;28;20068;-75
2022/01/03 06:08:36;;;;;;;21.27;12.07;;;;;;;;;;5037423;28;20029;-76
2022/01/03 06:11:02;;;;;;;25.10;12.02;;;;;;;;;;5030731;28;20116;-77
2022/01/03 06:13:28;;;;;;;22.55;12.45;;;;;;;;;;5030641;28;20112;-77
2022/01/03 06:15:55;;;;;;;22.02;13.38;;;;;;;;;;5020730;28;20056;-76
2022/01/03 06:18:21;;;;;;;22.27;12.05;;;;;;;;;;5020707;28;20084;-76
2022/01/03 06:20:48;;;;;;;20.05;11.60;;;;;;;;;;5015502;28;20037;-76
2022/01/03 06:23:14;;;;;;;20.00;12.23;;;;;;;;;;5043906;28;20108;-76
2022/01/03 06:25:40;;;;;;;23.20;12.02;;;;;;;;;;5038504;28;20033;-76
2022/01/03 06:28:08;;;;;;;24.63;11.45;;;;;;;;;;5035929;28;20045;-77
2022/01/03 06:30:34;;;;;;;21.30;12.68;;;;;;;;;;5029522;28;20472;-77
2022/01/03 06:33:01;;;;;;;22.08;12.90;;;;;;;;;;5030307;28;20045;-77
2022/01/03 06:35:27;;;;;;;20.35;11.85;;;;;;;;;;5027836;28;20107;-76
2022/01/03 06:37:53;;;;;;;25.73;13.77;;;;;;;;;;5030329;28;20037;-77
2022/01/03 06:40:19;;;;;;;26.92;16.85;;;;;;;;;;5035342;28;20033;-77
2022/01/03 06:42:45;;;;;;;22.88;12.75;;;;;;;;;;5036837;28;20049;-77
2022/01/03 06:45:11;;;;;;;22.92;13.23;;;;;;;;;;5027505;28;20525;-76
2022/01/03 06:47:37;;;;;;;19.35;12.82;;;;;;;;;;5029775;28;20144;-77
2022/01/03 06:50:04;;;;;;;18.95;11.82;;;;;;;;;;5025962;28;20119;-76
2022/01/03 06:52:30;;;;;;;24.90;14.57;;;;;;;;;;5027643;28;20109;-76
2022/01/03 06:54:56;;;;;;;25.58;16.20;;;;;;;;;;5031323;28;20479;-76
2022/01/03 06:57:22;;;;;;;24.42;14.57;;;;;;;;;;5036041;28;20523;-77
2022/01/03 06:59:48;;;;;;;24.58;13.93;;;;;;;;;;5041457;28;20104;-76
2022/01/03 07:02:14;;;;;;;22.10;13.75;;;;;;;;;;5042515;28;20116;-76
2022/01/03 07:04:40;;;;;;;29.15;16.55;;;;;;;;;;5042141;28;20040;-76
2022/01/03 07:07:07;;;;;;;31.00;18.58;;;;;;;;;;5042193;28;20029;-77
2022/01/03 07:09:33;;;;;;;27.45;17.95;;;;;;;;;;5037757;28;20029;-77
2022/01/03 07:11:59;;;;;;;31.08;17.02;;;;;;;;;;5044262;28;20057;-77
2022/01/03 07:19:39;;;;;;;34.90;22.48;;;;;;;;;;5027488;28;20040;-77
2022/01/03 07:22:05;;;;;;;32.63;20.25;;;;;;;;;;5012409;28;20877;-76
2022/01/03 07:24:35;;;;;;;33.00;20.42;;;;;;;;;;5031707;28;20034;-76
2022/01/03 07:27:04;;;;;;;29.25;19.30;;;;;;;;;;5023148;28;20559;-76
2022/01/03 07:29:30;;;;;;;26.92;15.85;;;;;;;;;;5028804;28;20033;-77
2022/01/03 07:31:57;;;;;;;25.02;17.63;;;;;;;;;;5018781;28;20464;-76
2022/01/03 07:34:23;;;;;;;45.08;28.20;;;;;;;;;;5025805;28;20080;-77
2022/01/03 07:36:49;;;;;;;32.75;22.52;;;;;;;;;;5025641;28;20033;-76
2022/01/03 07:39:15;;;;;;;32.22;19.52;;;;;;;;;;5019912;28;20041;-76
2022/01/03 07:41:41;;;;;;;33.33;19.77;;;;;;;;;;5032781;28;20538;-77
2022/01/03 07:44:07;;;;;;;32.65;18.73;;;;;;;;;;5033119;28;20037;-76
2022/01/03 07:46:33;;;;;;;32.10;20.42;;;;;;;;;;5033663;28;20034;-76
2022/01/03 07:48:59;;;;;;;30.52;19.17;;;;;;;;;;5033517;28;20044;-77
2022/01/03 07:51:25;;;;;;;30.95;18.35;;;;;;;;;;5032899;28;20064;-77
2022/01/03 07:53:51;;;;;;;30.92;18.20;;;;;;;;;;5025964;28;20039;-77
2022/01/03 07:56:18;;;;;;;26.80;16.52;;;;;;;;;;5032569;28;20087;-77
2022/01/03 07:58:44;;;;;;;26.23;17.15;;;;;;;;;;5021710;28;20030;-77
2022/01/03 08:01:11;;;;;;;27.60;16.55;;;;;;;;;;5028989;28;20084;-77
2022/01/03 08:03:37;;;;;;;30.05;17.35;;;;;;;;;;5026821;28;20036;-77
2022/01/03 08:06:03;;;;;;;30.08;18.70;;;;;;;;;;5037925;28;20554;-77
2022/01/03 08:08:29;;;;;;;36.85;22.90;;;;;;;;;;5041611;28;20121;-77
2022/01/03 08:10:55;;;;;;;41.28;26.05;;;;;;;;;;5053309;28;20035;-77
2022/01/03 08:13:21;;;;;;;46.05;32.83;;;;;;;;;;5048815;28;20087;-76
2022/01/03 08:15:48;;;;;;;45.75;28.20;;;;;;;;;;5028801;28;20490;-77
2022/01/03 08:18:14;;;;;;;36.47;22.02;;;;;;;;;;5021206;28;20025;-77
2022/01/03 08:20:40;;;;;;;33.17;19.88;;;;;;;;;;5021432;28;20025;-76
2022/01/03 08:23:06;;;;;;;28.52;18.00;;;;;;;;;;5015388;28;20038;-76
2022/01/03 08:25:37;;;;;;;28.95;18.33;;;;;;;;;;5033120;28;20063;-76
2022/01/03 08:28:04;;;;;;;29.05;18.80;;;;;;;;;;5021771;28;20033;-77
2022/01/03 08:30:30;;;;;;;30.73;17.40;;;;;;;;;;5048581;28;20040;-76
2022/01/03 08:32:56;;;;;;;29.05;16.73;;;;;;;;;;5015411;28;20037;-77
2022/01/03 08:35:24;;;;;;;31.08;18.23;;;;;;;;;;5026281;28;20030;-76
2022/01/03 08:37:50;;;;;;;38.03;22.33;;;;;;;;;;5031087;28;20080;-76
2022/01/03 08:40:16;;;;;;;36.60;22.58;;;;;;;;;;5031546;28;20029;-76
2022/01/03 08:42:42;;;;;;;39.08;23.02;;;;;;;;;;5031567;28;20133;-76
2022/01/03 08:45:08;;;;;;;36.97;21.90;;;;;;;;;;5024117;28;20029;-77
2022/01/03 08:47:34;;;;;;;33.22;20.45;;;;;;;;;;5032344;28;20037;-76
2022/01/03 08:50:00;;;;;;;35.05;20.40;;;;;;;;;;5026043;28;20108;-76
2022/01/03 08:52:26;;;;;;;33.38;20.42;;;;;;;;;;5031316;28;20387;-76
2022/01/03 08:54:52;;;;;;;32.90;18.83;;;;;;;;;;5031082;28;20387;-76
2022/01/03 08:57:21;;;;;;;36.33;22.08;;;;;;;;;;5031735;28;20083;-77
2022/01/03 08:59:47;;;;;;;34.67;21.38;;;;;;;;;;5031149;28;20029;-76
2022/01/03 09:02:14;;;;;;;34.67;20.38;;;;;;;;;;5031099;28;20120;-76
2022/01/03 09:04:40;;;;;;;38.33;21.77;;;;;;;;;;5031026;28;20109;-76
2022/01/03 09:07:06;;;;;;;35.60;20.60;;;;;;;;;;5041721;28;20075;-76
2022/01/03 09:09:34;;;;;;;35.20;19.77;;;;;;;;;;5031777;28;20029;-76
2022/01/03 09:12:00;;;;;;;33.88;20.17;;;;;;;;;;5031245;28;20044;-76
2022/01/03 09:14:27;;;;;;;36.38;21.15;;;;;;;;;;5031500;28;20033;-76
2022/01/03 09:16:53;;;;;;;34.63;19.83;;;;;;;;;;5029352;28;20052;-76
2022/01/03 09:19:19;;;;;;;33.65;18.30;;;;;;;;;;5028724;28;20029;-76
2022/01/03 09:21:45;;;;;;;41.30;20.75;;;;;;;;;;5033009;28;20060;-76
2022/01/03 09:29:31;;;;;;;42.92;21.88;;;;;;;;;;5032049;28;20047;-76
2022/01/03 09:31:57;;;;;;;43.83;24.05;;;;;;;;;;5028877;28;20280;-76
2022/01/03 09:34:23;;;;;;;45.15;22.40;;;;;;;;;;5028104;28;20056;-77
2022/01/03 09:36:49;;;;;;;39.15;21.48;;;;;;;;;;5032620;28;20042;-76
2022/01/03 09:39:15;;;;;;;41.33;20.85;;;;;;;;;;5035974;28;20080;-77
2022/01/03 09:41:44;;;;;;;39.47;20.15;;;;;;;;;;5030752;28;20465;-76
2022/01/03 09:44:11;;;;;;;35.58;18.67;;;;;;;;;;5027740;28;20025;-76
2022/01/03 09:46:39;;;;;;;35.88;19.58;;;;;;;;;;5030418;28;20079;-76
2022/01/03 09:49:06;;;;;;;39.72;19.75;;;;;;;;;;5035202;28;20036;-76
2022/01/03 09:51:33;;;;;;;38.92;19.25;;;;;;;;;;5030882;28;20045;-76
2022/01/03 09:54:04;;;;;;;34.10;17.70;;;;;;;;;;5030196;28;20060;-76
2022/01/03 09:56:31;;;;;;;37.53;18.03;;;;;;;;;;5030675;28;20132;-76
2022/01/03 09:59:00;;;;;;;33.72;17.08;;;;;;;;;;5022875;28;20037;-76
2022/01/03 10:01:26;;;;;;;33.88;17.95;;;;;;;;;;5028432;28;20068;-77
2022/01/03 10:03:52;;;;;;;29.55;16.10;;;;;;;;;;5039046;28;20033;-77
2022/01/03 10:06:19;;;;;;;36.03;16.95;;;;;;;;;;5030584;28;20380;-77
2022/01/03 10:08:45;;;;;;;36.47;18.58;;;;;;;;;;5026771;28;20039;-77
2022/01/03 10:11:11;;;;;;;30.80;17.75;;;;;;;;;;5024680;28;20671;-77
2022/01/03 10:13:37;;;;;;;29.83;17.13;;;;;;;;;;5029556;28;20515;-77
2022/01/03 10:16:04;;;;;;;31.80;17.88;;;;;;;;;;5028136;28;20028;-77
2022/01/03 10:18:31;;;;;;;29.35;16.25;;;;;;;;;;5029333;28;20030;-76
2022/01/03 10:20:57;;;;;;;29.77;15.40;;;;;;;;;;5030477;28;20029;-77
2022/01/03 10:23:23;;;;;;;23.60;12.63;;;;;;;;;;5029790;28;20030;-77
2022/01/03 10:25:50;;;;;;;30.20;16.83;;;;;;;;;;5030322;28;20052;-77
2022/01/03 10:28:23;;;;;;;27.30;16.30;;;;;;;;;;5029954;28;20601;-77
2022/01/03 10:30:49;;;;;;;27.85;14.65;;;;;;;;;;5017023;28;20033;-76
2022/01/03 10:33:24;;;;;;;21.50;13.27;;;;;;;;;;5027835;28;20144;-77
2022/01/03 10:35:52;;;;;;;25.40;13.07;;;;;;;;;;5029806;28;20029;-77
2022/01/03 10:38:32;;;;;;;25.67;13.90;;;;;;;;;;5044721;28;20025;-77
2022/01/03 10:41:14;;;;;;;26.25;13.68;;;;;;;;;;5037747;28;20072;-76
2022/01/03 10:43:40;;;;;;;24.23;14.40;;;;;;;;;;5040352;28;20049;-77
2022/01/03 10:46:24;;;;;;;22.45;13.82;;;;;;;;;;5019757;28;20052;-76
2022/01/03 10:48:51;;;;;;;26.67;14.30;;;;;;;;;;5020352;28;20375;-77
2022/01/03 10:51:21;;;;;;;30.25;15.95;;;;;;;;;;5024739;28;20049;-76
2022/01/03 10:53:48;;;;;;;30.55;16.25;;;;;;;;;;5029621;28;20571;-76
2022/01/03 10:56:28;;;;;;;32.95;16.80;;;;;;;;;;5037100;28;20480;-76
2022/01/03 10:58:55;;;;;;;30.88;16.67;;;;;;;;;;5037655;28;20025;-76
2022/01/03 11:01:24;;;;;;;31.45;16.83;;;;;;;;;;5037899;28;20033;-76
2022/01/03 11:03:51;;;;;;;31.80;17.70;;;;;;;;;;5049100;28;20353;-76
2022/01/03 11:06:36;;;;;;;28.30;16.98;;;;;;;;;;5040812;28;20513;-76
2022/01/03 11:11:49;;;;;;;31.05;12.93;;;;;;;;;;5026676;28;20096;-76
2022/01/03 11:14:30;;;;;;;26.00;14.43;;;;;;;;;;5025867;28;20033;-76
2022/01/03 11:16:57;;;;;;;22.77;12.20;;;;;;;;;;5019640;28;20038;-76
2022/01/03 11:19:39;;;;;;;18.98;11.20;;;;;;;;;;5028516;28;20116;-76
2022/01/03 11:22:06;;;;;;;22.27;11.57;;;;;;;;;;5014191;28;20671;-76
2022/01/03 11:24:32;;;;;;;24.42;11.73;;;;;;;;;;5025617;28;20038;-76
2022/01/03 11:27:00;;;;;;;20.33;9.98;;;;;;;;;;5033664;28;20076;-77
2022/01/03 11:29:30;;;;;;;24.70;10.68;;;;;;;;;;5033423;28;20022;-76
2022/01/03 11:31:59;;;;;;;20.38;9.93;;;;;;;;;;5017725;28;20041;-76
2022/01/03 11:34:25;;;;;;;21.52;11.15;;;;;;;;;;5027546;28;20077;-76
2022/01/03 11:36:52;;;;;;;18.35;9.63;;;;;;;;;;5032105;28;20037;-76
2022/01/03 11:39:20;;;;;;;22.67;10.82;;;;;;;;;;5033104;28;20036;-76
2022/01/03 11:41:46;;;;;;;21.65;11.20;;;;;;;;;;5029287;28;20628;-76
2022/01/03 11:44:15;;;;;;;21.70;10.73;;;;;;;;;;5036444;28;20035;-76
2022/01/03 11:46:41;;;;;;;22.25;12.13;;;;;;;;;;5034655;28;20108;-75
2022/01/03 11:49:08;;;;;;;21.52;11.70;;;;;;;;;;5035581;28;20861;-76
2022/01/03 11:51:35;;;;;;;25.80;11.88;;;;;;;;;;5033776;28;20087;-75
2022/01/03 11:54:03;;;;;;;22.02;9.25;;;;;;;;;;5031886;28;20087;-75
2022/01/03 11:56:30;;;;;;;18.75;9.30;;;;;;;;;;5031656;28;20068;-75
2022/01/03 12:04:40;;;;;;;13.48;5.20;;;;;;;;;;5020952;28;20694;-75
2022/01/03 12:07:06;;;;;;;11.88;3.92;;;;;;;;;;5028927;28;20025;-74
2022/01/03 12:09:32;;;;;;;14.50;4.20;;;;;;;;;;5032385;28;20104;-75
2022/01/03 12:11:59;;;;;;;9.40;2.92;;;;;;;;;;5028145;28;20034;-75
2022/01/03 12:14:38;;;;;;;9.27;3.40;;;;;;;;;;5031857;28;20053;-75
2022/01/03 12:17:06;;;;;;;9.38;2.70;;;;;;;;;;5024235;28;20085;-75
2022/01/03 12:19:39;;;;;;;9.65;2.05;;;;;;;;;;5031973;28;20112;-75
2022/01/03 12:22:10;;;;;;;9.00;2.03;;;;;;;;;;5032374;28;20034;-75
2022/01/03 12:24:36;;;;;;;10.57;2.53;;;;;;;;;;5031451;28;20022;-75
2022/01/03 12:29:56;;;;;;;20.42;9.68;;;;;;;;;;5028487;28;20088;-75
2022/01/03 12:32:29;;;;;;;19.60;7.82;;;;;;;;;;5030722;28;20041;-75
2022/01/03 12:35:07;;;;;;;15.80;6.07;;;;;;;;;;5022696;28;20083;-75
2022/01/03 12:37:34;;;;;;;13.80;6.07;;;;;;;;;;5021701;28;20034;-75
2022/01/03 12:40:03;;;;;;;17.15;5.35;;;;;;;;;;5030780;28;20029;-75
2022/01/03 12:42:51;;;;;;;10.85;4.22;;;;;;;;;;5027126;28;20104;-75
2022/01/03 12:45:17;;;;;;;12.75;3.95;;;;;;;;;;5028277;28;20568;-74
2022/01/03 12:47:44;;;;;;;13.50;4.53;;;;;;;;;;5012472;28;20041;-74
2022/01/03 12:50:27;;;;;;;14.00;3.72;;;;;;;;;;5017819;28;20037;-75
2022/01/03 12:52:54;;;;;;;7.80;2.03;;;;;;;;;;5043835;28;20039;-75
2022/01/03 12:55:39;;;;;;;7.57;1.52;;;;;;;;;;5030788;28;20029;-75
2022/01/03 12:58:14;;;;;;;8.35;0.88;;;;;;;;;;5025246;28;20044;-75
2022/01/03 13:00:40;;;;;;;4.05;0.98;;;;;;;;;;5029714;28;20057;-75
2022/01/03 13:03:25;;;;;;;6.53;1.00;;;;;;;;;;5031743;28;20038;-75
2022/01/03 13:06:10;;;;;;;10.23;2.15;;;;;;;;;;5031951;28;20041;-75
2022/01/03 13:08:57;;;;;;;5.75;2.25;;;;;;;;;;5029071;28;20063;-75
2022/01/03 13:11:33;;;;;;;6.57;1.75;;;;;;;;;;5015031;28;20124;-75
2022/01/03 13:14:08;;;;;;;7.25;1.30;;;;;;;;;;5019714;28;20029;-75
2022/01/03 13:16:36;;;;;;;5.65;1.15;;;;;;;;;;5037858;28;20044;-75
2022/01/03 13:19:07;;;;;;;4.38;1.48;;;;;;;;;;5044093;28;20104;-75
2022/01/03 13:21:36;;;;;;;9.20;1.85;;;;;;;;;;5021868;28;20593;-75
2022/01/03 13:24:02;;;;;;;9.73;1.73;;;;;;;;;;5027437;28;20025;-75
2022/01/03 13:26:29;;;;;;;7.53;2.42;;;;;;;;;;5032420;28;20685;-75
2022/01/03 13:28:57;;;;;;;9.43;2.90;;;;;;;;;;5031041;28;20103;-75
2022/01/03 13:31:23;;;;;;;12.38;3.97;;;;;;;;;;5031153;28;20044;-75
2022/01/03 13:33:55;;;;;;;12.27;4.68;;;;;;;;;;5031136;28;20040;-75
2022/01/03 13:36:21;;;;;;;10.80;2.78;;;;;;;;;;5030658;28;20037;-75
2022/01/03 13:38:47;;;;;;;8.88;2.80;;;;;;;;;;5030642;28;20029;-75
2022/01/03 13:41:15;;;;;;;10.63;3.35;;;;;;;;;;5029836;28;20464;-74
2022/01/03 13:43:46;;;;;;;7.28;1.70;;;;;;;;;;5030304;28;20049;-75
2022/01/03 13:49:13;;;;;;;10.07;2.10;;;;;;;;;;5030299;28;20047;-75
2022/01/03 13:51:53;;;;;;;8.25;1.73;;;;;;;;;;5024968;28;20383;-75
2022/01/03 13:54:27;;;;;;;7.25;1.60;;;;;;;;;;5026254;28;20468;-75
2022/01/03 13:56:54;;;;;;;9.13;1.80;;;;;;;;;;5028041;28;20722;-75
2022/01/03 13:59:21;;;;;;;6.32;1.73;;;;;;;;;;5025918;28;20392;-74
2022/01/03 14:01:48;;;;;;;5.90;1.50;;;;;;;;;;5022346;28;20038;-75
2022/01/03 14:04:14;;;;;;;7.55;2.05;;;;;;;;;;5028720;28;20471;-75
2022/01/03 14:06:40;;;;;;;5.15;1.38;;;;;;;;;;5014744;28;20042;-75
2022/01/03 14:09:17;;;;;;;9.27;1.80;;;;;;;;;;5030615;28;20065;-75
2022/01/03 14:11:44;;;;;;;7.88;1.55;;;;;;;;;;5036646;28;20559;-74
2022/01/03 14:14:15;;;;;;;7.10;1.83;;;;;;;;;;5016100;28;20034;-74
2022/01/03 14:16:54;;;;;;;6.47;1.75;;;;;;;;;;5014305;28;20481;-74
2022/01/03 14:19:21;;;;;;;7.63;1.60;;;;;;;;;;5025624;28;20112;-75
2022/01/03 14:21:48;;;;;;;8.10;1.77;;;;;;;;;;5030533;28;20384;-75
2022/01/03 14:24:14;;;;;;;8.85;2.03;;;;;;;;;;5030216;28;20112;-75
2022/01/03 14:26:40;;;;;;;8.88;1.88;;;;;;;;;;5026633;28;20091;-75
2022/01/03 14:29:10;;;;;;;9.27;2.13;;;;;;;;;;5029608;28;20061;-74
2022/01/03 14:31:47;;;;;;;8.75;2.38;;;;;;;;;;5029990;28;20032;-75
2022/01/03 14:34:25;;;;;;;10.20;3.78;;;;;;;;;;5024571;28;20041;-75
2022/01/03 14:36:52;;;;;;;12.18;3.95;;;;;;;;;;5029586;28;20044;-74
2022/01/03 14:39:18;;;;;;;15.43;3.72;;;;;;;;;;5029715;28;20112;-74
2022/01/03 14:41:55;;;;;;;11.45;2.95;;;;;;;;;;5042841;28;20041;-75
2022/01/03 14:44:23;;;;;;;9.98;2.80;;;;;;;;;;5029817;28;20885;-75
2022/01/03 14:46:49;;;;;;;13.73;3.40;;;;;;;;;;5014024;28;20116;-75
2022/01/03 14:49:20;;;;;;;15.32;3.92;;;;;;;;;;5026235;28;20026;-75
2022/01/03 14:51:48;;;;;;;11.80;4.63;;;;;;;;;;5020320;28;20037;-75
2022/01/03 14:54:15;;;;;;;13.07;6.68;;;;;;;;;;5029521;28;20042;-75
2022/01/03 14:56:42;;;;;;;12.88;5.25;;;;;;;;;;5017133;28;20038;-75